createdAt,value
2023-04-19T03:47:29.735Z,82.09
2023-04-19T03:48:30.956Z,81.61
2023-04-19T03:49:30.824Z,81.61
2023-04-19T03:50:30.659Z,81.71
2023-04-19T03:51:30.638Z,81.61
2023-04-19T03:52:30.654Z,81.61
2023-04-19T03:53:30.628Z,81.71
2023-04-19T03:54:30.581Z,82.43
2023-04-19T03:55:30.603Z,82.54
2023-04-19T03:56:30.568Z,82.33
2023-04-19T03:57:30.585Z,82.26
2023-04-19T03:58:30.567Z,83.19
2023-04-19T03:59:30.568Z,83.81
2023-04-19T04:00:30.582Z,83.40
2023-04-19T04:01:30.523Z,83.29
2023-04-19T04:02:30.678Z,83.71
2023-04-19T04:03:30.743Z,83.71
2023-04-19T04:04:30.619Z,84.43
2023-04-19T04:05:30.476Z,84.47
2023-04-19T04:06:30.466Z,84.43
2023-04-19T04:07:30.452Z,84.57
2023-04-19T04:08:30.480Z,84.47
2023-04-19T04:09:30.433Z,84.47
2023-04-19T04:10:30.451Z,83.75
2023-04-19T04:11:30.409Z,84.47
2023-04-19T04:12:30.390Z,84.06
2023-04-19T04:13:30.407Z,84.27
2023-04-19T04:14:30.401Z,84.16
2023-04-19T04:15:30.369Z,84.16
2023-04-19T04:16:30.393Z,83.54
2023-04-19T04:17:30.328Z,84.36
2023-04-19T04:18:30.316Z,83.54
2023-04-19T04:19:30.401Z,84.47
2023-04-19T04:20:30.291Z,84.06
2023-04-19T04:21:30.286Z,84.78
2023-04-19T04:22:31.313Z,84.51
2023-04-19T04:23:30.288Z,83.89
2023-04-19T04:24:30.251Z,84.09
2023-04-19T04:25:30.298Z,84.86
2023-04-19T04:26:30.226Z,85.06
2023-04-19T04:27:30.220Z,84.96
2023-04-19T04:28:30.256Z,85.06
2023-04-19T04:29:30.215Z,84.65
2023-04-19T04:30:30.238Z,85.17
2023-04-19T04:31:30.228Z,84.65
2023-04-19T04:32:30.183Z,84.30
2023-04-19T04:33:30.166Z,83.99
2023-04-19T04:34:30.160Z,84.65
2023-04-19T04:35:30.259Z,84.34
2023-04-19T04:36:30.178Z,84.23
2023-04-19T04:37:30.131Z,84.55
2023-04-19T04:38:30.103Z,84.65
2023-04-19T04:39:30.105Z,84.03
2023-04-19T04:40:30.134Z,84.69
2023-04-19T04:41:30.120Z,84.07
2023-04-19T04:42:30.066Z,84.89
2023-04-19T04:43:30.095Z,84.79
2023-04-19T04:44:30.065Z,85.10
2023-04-19T04:45:30.063Z,84.83
2023-04-19T04:46:30.095Z,85.10
2023-04-19T04:47:30.030Z,85.72
2023-04-19T04:48:30.003Z,85.21
2023-04-19T04:49:30.031Z,85.21
2023-04-19T04:50:29.987Z,84.59
2023-04-19T04:51:30.041Z,83.86
2023-04-19T04:52:30.153Z,84.23
2023-04-19T04:53:29.981Z,84.13
2023-04-19T04:54:29.947Z,84.59
2023-04-19T04:55:29.950Z,83.51
2023-04-19T04:56:29.937Z,83.76
2023-04-19T04:57:29.980Z,84.28
2023-04-19T04:58:29.889Z,84.79
2023-04-19T04:59:29.899Z,84.44
2023-04-19T05:00:30.096Z,84.48
2023-04-19T05:01:29.967Z,83.86
2023-04-19T05:02:30.041Z,84.42
2023-04-19T05:03:29.876Z,84.11
2023-04-19T05:04:29.883Z,84.31
2023-04-19T05:05:30.026Z,84.42
2023-04-19T05:06:29.833Z,84.00
2023-04-19T05:07:29.849Z,83.86
2023-04-19T05:08:29.803Z,83.04
2023-04-19T05:09:29.807Z,82.31
2023-04-19T05:10:29.767Z,83.70
2023-04-19T05:11:29.781Z,82.90
2023-04-19T05:12:29.787Z,83.18
2023-04-19T05:13:29.745Z,82.45
2023-04-19T05:14:29.719Z,82.73
2023-04-19T05:15:29.742Z,81.59
2023-04-19T05:16:29.769Z,81.38
2023-04-19T05:17:29.737Z,81.59
2023-04-19T05:18:29.732Z,81.38
2023-04-19T05:19:29.686Z,81.28
2023-04-19T05:20:29.648Z,80.97
2023-04-19T05:21:29.663Z,80.83
2023-04-19T05:22:29.656Z,80.32
2023-04-19T05:23:29.648Z,80.11
2023-04-19T05:24:29.621Z,79.25
2023-04-19T05:25:29.603Z,79.90
2023-04-19T05:26:29.594Z,80.11
2023-04-19T05:27:29.580Z,79.80
2023-04-19T05:28:29.633Z,78.70
2023-04-19T05:29:29.701Z,79.01
2023-04-19T05:30:29.911Z,78.59
2023-04-19T05:31:29.587Z,79.01
2023-04-19T05:32:29.546Z,78.77
2023-04-19T05:33:29.544Z,77.87
2023-04-19T05:34:29.516Z,79.15
2023-04-19T05:35:29.522Z,78.80
2023-04-19T05:36:29.481Z,78.91
2023-04-19T05:37:29.488Z,78.18
2023-04-19T05:38:29.469Z,78.08
2023-04-19T05:39:29.756Z,77.25
2023-04-19T05:40:29.472Z,77.42
2023-04-19T05:41:29.420Z,76.81
2023-04-19T05:42:29.422Z,76.53
2023-04-19T05:43:29.438Z,76.32
2023-04-19T05:44:29.473Z,76.84
2023-04-19T05:45:29.415Z,77.36
2023-04-19T05:46:29.461Z,77.63
2023-04-19T05:47:29.415Z,77.04
2023-04-19T05:48:29.381Z,76.39
2023-04-19T05:49:29.362Z,75.95
2023-04-19T05:50:29.418Z,75.74
2023-04-19T05:51:29.313Z,75.74
2023-04-19T05:52:29.296Z,74.60
2023-04-19T05:53:29.318Z,75.98
2023-04-19T05:54:29.308Z,76.18
2023-04-19T05:55:29.283Z,75.15
2023-04-19T05:56:29.304Z,75.01
2023-04-19T05:57:29.265Z,74.77
2023-04-19T05:58:29.280Z,74.88
2023-04-19T05:59:29.235Z,74.26
2023-04-19T06:00:29.366Z,74.36
2023-04-19T06:01:29.400Z,74.05
2023-04-19T06:02:29.505Z,74.15
2023-04-19T06:03:31.911Z,73.81
2023-04-19T06:04:29.395Z,74.26
2023-04-19T06:05:29.306Z,74.36
2023-04-19T06:06:29.303Z,74.12
2023-04-19T06:07:32.879Z,73.36
2023-04-19T06:08:30.177Z,71.69
2023-04-19T06:09:29.292Z,71.86
2023-04-19T06:15:36.461Z,69.32
2023-04-19T06:16:35.788Z,67.99
2023-04-19T06:17:35.795Z,67.79
2023-04-19T06:18:35.617Z,66.52
2023-04-19T06:40:19.181Z,66.41
2023-04-19T06:41:19.169Z,66.13
2023-04-19T06:42:19.243Z,66.67
2023-04-19T06:43:19.049Z,66.31
2023-04-19T06:44:18.973Z,66.25
2023-04-19T06:45:18.989Z,64.64
2023-04-19T06:46:18.998Z,63.76
2023-04-19T06:47:18.937Z,60.51
2023-04-19T06:59:22.481Z,57.30
2023-04-19T07:00:22.339Z,58.53
2023-04-19T07:01:22.435Z,57.35
2023-04-19T07:02:22.384Z,57.12
2023-04-19T07:03:22.434Z,57.25
2023-04-19T07:04:22.775Z,56.05
2023-04-19T07:05:22.215Z,58.69
2023-04-19T07:10:29.813Z,56.81
2023-04-19T07:11:29.757Z,57.33
2023-04-19T07:12:29.835Z,60.13
2023-04-19T07:13:29.660Z,60.72
2023-04-19T07:14:29.665Z,60.00
2023-04-19T07:15:29.618Z,59.33
2023-04-19T07:16:29.732Z,59.14
2023-04-19T07:17:29.629Z,57.45
2023-04-19T07:18:44.797Z,57.28
2023-04-19T07:19:29.802Z,57.53
2023-04-19T07:20:29.692Z,55.28
2023-04-19T07:21:29.715Z,56.20
2023-04-19T07:22:29.583Z,57.38
2023-04-19T07:23:29.539Z,55.97
2023-04-19T07:24:29.583Z,55.94
2023-04-19T07:25:29.506Z,54.03
2023-04-19T07:26:29.506Z,53.23
2023-04-19T07:27:29.500Z,54.28
2023-04-19T07:28:29.477Z,52.60
2023-04-19T07:29:30.643Z,55.26
2023-04-19T07:30:30.712Z,54.57
2023-04-19T07:31:30.558Z,54.05
2023-04-19T07:32:30.659Z,52.83
2023-04-19T07:33:30.581Z,51.27
2023-04-19T11:09:40.074Z,41.56
2023-04-19T11:10:41.238Z,39.60
2023-04-19T11:11:41.245Z,39.17
2023-04-19T11:12:41.107Z,38.39
2023-04-19T11:13:41.051Z,37.86
2023-04-19T11:14:41.084Z,37.89
2023-04-19T11:15:41.092Z,41.96
2023-04-19T11:16:46.035Z,42.27
2023-04-19T11:17:42.041Z,41.72
2023-04-19T11:18:41.014Z,38.92
2023-04-19T11:19:41.024Z,38.31
2023-04-19T11:20:41.007Z,39.79
2023-04-19T11:21:40.993Z,40.89
2023-04-19T11:22:40.963Z,38.15
2023-04-19T11:23:40.972Z,41.38
2023-04-19T11:24:40.964Z,39.08
2023-04-19T11:25:41.051Z,41.01
2023-04-19T11:26:40.931Z,39.89
2023-04-19T11:27:40.912Z,39.28
2023-04-19T11:28:40.909Z,40.17
2023-04-19T11:29:40.939Z,42.57
2023-04-19T11:30:40.916Z,43.77
2023-04-19T11:31:40.910Z,43.14
2023-04-19T11:32:40.879Z,44.87
2023-04-19T11:33:40.866Z,43.32
2023-04-19T11:34:40.875Z,40.68
2023-04-19T11:35:40.869Z,41.90
2023-04-19T11:36:40.824Z,40.66
2023-04-19T11:37:40.790Z,40.48
2023-04-19T11:38:40.796Z,39.46
2023-04-19T11:39:40.785Z,39.53
2023-04-19T11:40:40.782Z,41.03
2023-04-19T11:41:40.789Z,41.31
2023-04-19T11:42:40.752Z,41.64
2023-04-19T11:43:40.741Z,40.34
2023-04-19T11:44:40.863Z,39.66
2023-04-19T11:45:40.733Z,41.29
2023-04-19T11:46:40.714Z,41.78
2023-04-19T11:47:40.719Z,43.84
2023-04-19T11:48:40.680Z,42.37
2023-04-19T11:49:40.664Z,42.63
2023-04-19T11:50:40.672Z,39.56
2023-04-19T11:51:40.684Z,39.19
2023-04-19T11:52:40.641Z,39.28
2023-04-19T11:53:40.635Z,39.50
2023-04-19T11:54:40.617Z,39.36
2023-04-19T11:55:40.645Z,39.14
2023-04-19T11:56:40.589Z,39.34
2023-04-19T11:57:41.679Z,40.21
2023-04-19T11:58:41.588Z,41.72
2023-04-19T11:59:40.552Z,40.16
2023-04-19T12:00:40.597Z,37.14
2023-04-19T12:01:40.551Z,39.04
2023-04-19T12:02:40.723Z,38.87
2023-04-19T12:03:40.773Z,39.84
2023-04-19T12:04:40.571Z,39.55
2023-04-19T12:05:40.586Z,40.52
2023-04-19T12:06:40.512Z,38.93
2023-04-19T12:07:40.599Z,38.87
2023-04-19T12:08:40.469Z,40.01
2023-04-19T12:09:40.494Z,38.56
2023-04-19T12:10:40.488Z,38.93
2023-04-19T12:11:40.486Z,38.15
2023-04-19T12:12:40.409Z,39.38
2023-04-19T12:13:40.420Z,38.75
2023-04-19T12:14:40.401Z,38.14
2023-04-19T12:15:40.390Z,37.00
2023-04-19T12:16:40.481Z,37.07
2023-04-19T12:17:54.656Z,36.44
2023-04-19T12:18:41.350Z,35.64
2023-04-19T12:19:40.357Z,36.80
2023-04-19T12:20:40.341Z,37.92
2023-04-19T12:21:40.313Z,40.12
2023-04-19T12:22:40.326Z,38.68
2023-04-19T12:23:40.300Z,36.04
2023-04-19T12:24:40.300Z,37.00
2023-04-19T12:25:40.281Z,35.34
2023-04-19T12:26:40.258Z,37.26
2023-04-19T12:27:40.299Z,38.96
2023-04-19T12:28:40.249Z,38.73
2023-04-19T12:29:40.230Z,38.15
2023-04-19T12:30:40.224Z,38.53
2023-04-19T12:31:40.212Z,39.40
2023-04-19T12:32:40.319Z,41.01
2023-04-19T12:33:40.183Z,38.99
2023-04-19T12:34:40.181Z,40.09
2023-04-19T12:35:40.167Z,38.63
2023-04-19T12:36:40.152Z,39.61
2023-04-19T12:37:40.208Z,38.09
2023-04-19T12:38:40.161Z,39.02
2023-04-19T12:39:40.122Z,38.43
2023-04-19T12:40:40.112Z,39.30
2023-04-19T12:41:40.128Z,38.00
2023-04-19T12:42:40.084Z,38.31
2023-04-19T12:43:40.127Z,38.79
2023-04-19T12:44:40.067Z,39.89
2023-04-19T12:45:41.100Z,39.17
2023-04-19T12:46:40.229Z,37.12
2023-04-19T12:47:40.132Z,39.11
2023-04-19T12:48:40.051Z,37.05
2023-04-19T12:49:40.027Z,37.87
2023-04-19T12:50:40.034Z,41.82
2023-04-19T12:51:40.012Z,41.33
2023-04-19T12:52:40.309Z,38.78
2023-04-19T12:53:40.007Z,37.02
2023-04-19T12:54:40.027Z,34.97
2023-04-19T12:55:40.004Z,33.75
2023-04-19T12:56:39.964Z,32.93
2023-04-19T12:57:39.934Z,33.34
2023-04-19T12:58:39.900Z,33.15
2023-04-19T12:59:40.078Z,34.46
2023-04-19T13:00:39.929Z,33.97
2023-04-19T13:01:40.195Z,37.80
2023-04-19T13:02:39.976Z,33.11
2023-04-19T13:03:40.085Z,33.37
2023-04-19T13:04:40.039Z,33.95
2023-04-19T13:05:39.838Z,35.80
2023-04-19T13:06:39.804Z,35.66
2023-04-19T13:07:39.810Z,34.64
2023-04-19T13:08:46.200Z,34.29
2023-04-19T13:09:40.828Z,34.49
2023-04-19T13:10:39.780Z,33.44
2023-04-19T13:11:39.772Z,33.95
2023-04-19T13:12:39.746Z,36.49
2023-04-19T13:13:39.911Z,35.56
2023-04-19T13:14:39.740Z,35.36
2023-04-19T13:15:39.807Z,36.39
2023-04-19T13:16:39.709Z,36.49
2023-04-19T13:17:39.789Z,36.47
2023-04-19T13:18:39.691Z,37.17
2023-04-19T13:19:39.702Z,36.66
2023-04-19T13:20:39.697Z,36.95
2023-04-19T13:21:39.652Z,36.44
2023-04-19T13:22:39.649Z,35.82
2023-04-19T13:23:39.688Z,37.32
2023-04-19T13:24:39.630Z,35.29
2023-04-19T13:25:39.695Z,37.20
2023-04-19T13:26:39.613Z,33.67
2023-04-19T13:27:39.592Z,35.90
2023-04-19T13:28:39.560Z,33.50
2023-04-19T13:29:39.597Z,35.36
2023-04-19T13:30:39.557Z,36.65
2023-04-19T13:31:39.635Z,35.22
2023-04-19T13:32:39.569Z,36.12
2023-04-19T13:33:39.535Z,36.44
2023-04-19T13:34:40.524Z,34.12
2023-04-19T13:35:39.558Z,34.94
2023-04-19T13:36:39.534Z,34.70
2023-04-19T13:37:39.484Z,35.88
2023-04-19T13:38:39.460Z,38.53
2023-04-19T13:39:39.465Z,38.65
2023-04-19T13:40:39.599Z,38.65
2023-04-19T13:41:39.492Z,38.96
2023-04-19T13:42:39.421Z,41.39
2023-04-19T13:43:39.448Z,38.78
2023-04-19T13:44:39.410Z,37.54
2023-04-19T13:45:39.394Z,37.19
2023-04-19T13:46:39.419Z,38.04
2023-04-19T13:47:40.049Z,38.62
2023-04-19T13:48:39.357Z,38.31
2023-04-19T13:49:39.330Z,39.03
2023-04-19T13:50:39.353Z,38.09
2023-04-19T13:51:49.748Z,38.45
2023-04-19T13:52:41.360Z,39.90
2023-04-19T13:53:39.376Z,39.96
2023-04-19T13:54:39.293Z,38.60
2023-04-19T13:55:39.268Z,39.72
2023-04-19T13:56:39.845Z,37.48
2023-04-19T13:57:39.317Z,39.19
2023-04-19T13:58:40.277Z,38.31
2023-04-19T13:59:39.252Z,39.35
2023-04-19T14:00:39.235Z,38.48
2023-04-19T14:01:39.254Z,39.28
2023-04-19T14:02:39.432Z,38.67
2023-04-19T14:03:39.483Z,39.39
2023-04-19T14:04:39.289Z,39.47
2023-04-19T14:05:39.164Z,38.85
2023-04-19T14:06:39.173Z,39.35
2023-04-19T14:07:39.181Z,37.99
2023-04-19T14:08:39.185Z,38.80
2023-04-19T14:09:39.128Z,37.97
2023-04-19T14:10:39.121Z,38.06
2023-04-19T14:11:39.126Z,38.54
2023-04-19T14:12:39.126Z,39.97
2023-04-19T14:13:39.197Z,37.30
2023-04-19T14:14:39.105Z,38.10
2023-04-19T14:15:39.070Z,38.29
2023-04-19T14:16:39.089Z,38.61
2023-04-19T14:17:39.088Z,37.87
2023-04-19T14:18:39.055Z,37.98
2023-04-19T14:19:39.016Z,38.53
2023-04-19T14:20:39.044Z,37.10
2023-04-19T14:21:39.050Z,37.97
2023-04-19T14:22:38.981Z,38.97
2023-04-19T14:23:39.070Z,39.17
2023-04-19T14:24:38.984Z,39.69
2023-04-19T14:25:38.967Z,38.15
2023-04-19T14:26:38.921Z,39.50
2023-04-19T14:27:38.914Z,39.62
2023-04-19T14:28:38.918Z,38.62
2023-04-19T14:29:38.938Z,39.04
2023-04-19T14:30:38.905Z,39.65
2023-04-19T14:31:38.982Z,38.35
2023-04-19T14:32:39.078Z,39.83
2023-04-19T14:33:38.860Z,40.46
2023-04-19T14:34:38.884Z,39.75
2023-04-19T14:35:38.843Z,41.24
2023-04-19T14:36:38.857Z,39.59
2023-04-19T14:37:38.858Z,40.08
2023-04-19T14:38:38.831Z,39.25
2023-04-19T14:39:38.809Z,39.37
2023-04-19T14:40:38.793Z,38.02
2023-04-19T14:41:43.277Z,36.90
2023-04-19T14:42:38.755Z,35.30
2023-04-19T14:43:38.744Z,37.45
2023-04-19T14:44:38.741Z,37.04
2023-04-19T14:45:38.806Z,33.59
2023-04-19T14:46:49.250Z,33.69
2023-04-19T14:47:39.774Z,34.71
2023-04-19T14:48:38.723Z,34.15
2023-04-19T14:49:38.664Z,35.77
2023-04-19T14:50:38.712Z,35.63
2023-04-19T14:51:38.666Z,34.92
2023-04-19T14:52:38.654Z,35.60
2023-04-19T14:53:38.636Z,35.07
2023-04-19T14:54:38.629Z,34.48
2023-04-19T14:55:38.621Z,35.31
2023-04-19T14:56:38.622Z,34.38
2023-04-19T14:57:38.610Z,33.98
2023-04-19T14:58:38.572Z,33.49
2023-04-19T14:59:38.590Z,33.44
2023-04-19T15:00:38.557Z,34.17
2023-04-19T15:01:38.654Z,34.15
2023-04-19T15:02:38.709Z,34.88
2023-04-19T15:03:38.805Z,36.73
2023-04-19T15:04:41.005Z,36.10
2023-04-19T15:05:39.562Z,36.82
2023-04-19T15:06:38.532Z,34.47
2023-04-19T15:07:38.480Z,33.86
2023-04-19T15:08:38.446Z,36.31
2023-04-19T15:09:38.450Z,35.80
2023-04-19T15:10:38.562Z,36.00
2023-04-19T15:11:39.487Z,36.31
2023-04-19T15:12:38.413Z,35.99
2023-04-19T15:13:38.411Z,35.90
2023-04-19T15:14:38.423Z,36.60
2023-04-19T15:15:38.389Z,36.70
2023-04-19T15:16:38.525Z,36.90
2023-04-19T15:17:38.486Z,35.69
2023-04-19T15:18:38.373Z,37.33
2023-04-19T15:19:38.350Z,36.61
2023-04-19T15:20:38.334Z,36.65
2023-04-19T15:21:38.374Z,36.97
2023-04-19T15:22:38.547Z,38.32
2023-04-19T15:23:38.353Z,37.40
2023-04-19T15:24:38.340Z,38.50
2023-04-19T15:25:38.312Z,37.98
2023-04-19T15:26:38.290Z,37.24
2023-04-19T15:27:38.288Z,36.94
2023-04-19T15:28:38.251Z,36.75
2023-04-19T15:29:38.251Z,38.69
2023-04-19T15:30:41.336Z,37.98
2023-04-19T15:31:39.267Z,38.09
2023-04-19T15:32:38.314Z,38.20
2023-04-19T15:33:38.221Z,39.32
2023-04-19T15:34:38.213Z,39.59
2023-04-19T15:35:38.177Z,38.26
2023-04-19T15:36:38.183Z,39.06
2023-04-19T15:37:38.192Z,38.12
2023-04-19T15:38:38.141Z,39.01
2023-04-19T15:39:38.144Z,37.09
2023-04-19T15:40:38.129Z,37.02
2023-04-19T15:41:38.139Z,36.65
2023-04-19T15:42:38.168Z,38.09
2023-04-19T15:43:38.110Z,38.37
2023-04-19T15:44:38.091Z,38.02
2023-04-19T15:45:38.083Z,37.21
2023-04-19T15:46:38.174Z,38.62
2023-04-19T15:47:39.968Z,37.27
2023-04-19T15:48:38.068Z,37.27
2023-04-19T15:49:38.047Z,37.43
2023-04-19T15:50:38.072Z,36.77
2023-04-19T15:51:38.046Z,38.50
2023-04-19T15:52:38.080Z,38.39
2023-04-19T15:53:38.014Z,38.40
2023-04-19T15:54:37.989Z,38.09
2023-04-19T15:55:38.007Z,38.98
2023-04-19T15:56:37.959Z,38.18
2023-04-19T15:57:37.988Z,38.30
2023-04-19T15:58:37.987Z,38.40
2023-04-19T15:59:37.919Z,39.22
2023-04-19T16:00:37.960Z,40.53
2023-04-19T16:01:37.955Z,39.69
2023-04-19T16:02:38.112Z,40.03
2023-04-19T16:03:38.129Z,40.38
2023-04-19T16:04:38.002Z,41.73
2023-04-19T16:05:37.866Z,41.71
2023-04-19T16:06:37.885Z,41.88
2023-04-19T16:07:37.852Z,39.32
2023-04-19T16:08:37.837Z,41.88
2023-04-19T16:09:37.956Z,41.77
2023-04-19T16:10:37.810Z,39.94
2023-04-19T16:11:37.838Z,39.94
2023-04-19T16:12:37.808Z,39.83
2023-04-19T16:13:37.792Z,41.56
2023-04-19T16:14:37.819Z,41.38
2023-04-19T16:15:37.772Z,40.16
2023-04-19T16:16:37.846Z,40.97
2023-04-19T16:17:37.739Z,41.28
2023-04-19T16:18:37.721Z,41.97
2023-04-19T16:19:37.765Z,41.36
2023-04-19T16:20:37.730Z,41.77
2023-04-19T16:21:37.718Z,41.44
2023-04-19T16:22:37.717Z,41.28
2023-04-19T16:23:37.666Z,41.77
2023-04-19T16:24:37.670Z,40.75
2023-04-19T16:25:37.671Z,40.12
2023-04-19T16:26:37.657Z,41.97
2023-04-19T16:27:37.636Z,40.03
2023-04-19T16:28:37.621Z,41.36
2023-04-19T16:29:37.610Z,41.16
2023-04-19T16:30:37.649Z,41.26
2023-04-19T16:31:37.704Z,41.47
2023-04-19T16:32:37.654Z,40.85
2023-04-19T16:33:37.592Z,39.62
2023-04-19T16:34:37.569Z,41.79
2023-04-19T16:35:37.664Z,42.18
2023-04-19T16:36:37.558Z,41.47
2023-04-19T16:37:37.547Z,43.20
2023-04-19T16:38:37.542Z,42.41
2023-04-19T16:39:37.504Z,41.69
2023-04-19T16:40:37.499Z,43.00
2023-04-19T16:41:37.816Z,42.26
2023-04-19T16:42:37.500Z,41.35
2023-04-19T16:43:37.460Z,41.14
2023-04-19T16:44:37.441Z,41.56
2023-04-19T16:45:37.512Z,41.77
2023-04-19T16:46:37.549Z,42.29
2023-04-19T16:47:37.426Z,41.56
2023-04-19T16:48:37.434Z,41.93
2023-04-19T16:49:37.413Z,42.96
2023-04-19T16:50:37.664Z,42.85
2023-04-19T16:51:37.404Z,42.73
2023-04-19T16:52:37.407Z,41.38
2023-04-19T16:53:37.370Z,42.20
2023-04-19T16:54:37.371Z,41.79
2023-04-19T16:55:37.362Z,41.61
2023-04-19T16:56:37.341Z,42.24
2023-04-19T16:57:37.365Z,42.83
2023-04-19T16:58:37.310Z,43.14
2023-04-19T16:59:37.274Z,43.35
2023-04-19T17:00:37.310Z,42.65
2023-04-19T17:01:37.389Z,42.94
2023-04-19T17:02:37.382Z,42.65
2023-04-19T17:03:37.406Z,43.16
2023-04-19T17:04:37.343Z,43.98
2023-04-19T17:05:37.230Z,43.67
2023-04-19T17:06:37.224Z,43.16
2023-04-19T17:07:37.185Z,43.16
2023-04-19T17:08:37.225Z,43.98
2023-04-19T17:09:37.215Z,43.79
2023-04-19T17:10:37.157Z,44.02
2023-04-19T17:11:37.173Z,44.20
2023-04-19T17:12:37.151Z,43.79
2023-04-19T17:13:37.165Z,43.69
2023-04-19T17:14:37.143Z,44.10
2023-04-19T17:15:37.170Z,43.69
2023-04-19T17:16:37.141Z,43.79
2023-04-19T17:17:37.119Z,43.51
2023-04-19T17:18:37.083Z,44.51
2023-04-19T17:19:37.116Z,45.23
2023-04-19T17:22:37.504Z,44.84
2023-04-19T17:23:37.510Z,45.35
2023-04-19T17:24:37.451Z,45.76
2023-04-19T17:25:37.337Z,45.65
2023-04-19T17:26:37.347Z,46.07
2023-04-19T17:27:37.306Z,45.64
2023-04-19T17:28:37.512Z,45.57
